createdAt,value
2022-08-12T00:03:56.391Z,1.80
2022-08-12T00:06:44.011Z,1.80
2022-08-12T00:09:31.140Z,1.92
2022-08-12T00:12:17.077Z,1.92
2022-08-12T00:15:03.628Z,2.00
2022-08-12T00:17:52.017Z,2.00
2022-08-12T00:20:38.047Z,2.00
2022-08-12T00:23:24.400Z,1.95
2022-08-12T00:26:23.747Z,1.80
2022-08-12T00:29:12.347Z,1.83
2022-08-12T00:32:00.823Z,1.95
2022-08-12T00:34:49.552Z,2.00
2022-08-12T00:37:39.240Z,2.10
2022-08-12T00:40:27.761Z,2.13
2022-08-12T00:42:57.983Z,1.90
2022-08-12T00:45:26.272Z,2.13
2022-08-12T00:47:54.570Z,2.22
2022-08-12T00:50:23.805Z,2.03
2022-08-12T00:52:52.949Z,2.03
2022-08-12T00:55:22.940Z,2.00
2022-08-12T00:57:52.288Z,2.25
2022-08-12T01:00:25.210Z,2.20
2022-08-12T01:02:58.844Z,1.90
2022-08-12T01:05:48.464Z,2.10
2022-08-12T01:08:34.884Z,2.30
2022-08-12T01:11:23.377Z,2.00
2022-08-12T01:13:51.424Z,2.20
2022-08-12T01:16:23.442Z,2.13
2022-08-12T01:18:56.876Z,2.33
2022-08-12T01:21:51.685Z,2.45
2022-08-12T01:24:58.717Z,2.72
2022-08-12T01:27:27.769Z,2.08
2022-08-12T01:30:00.178Z,2.20
2022-08-12T01:32:30.086Z,2.28
2022-08-12T01:35:09.046Z,2.33
2022-08-12T01:37:59.249Z,2.00
2022-08-12T01:40:36.991Z,2.50
2022-08-12T01:43:16.817Z,1.88
2022-08-12T01:46:01.471Z,1.92
2022-08-12T01:48:47.205Z,2.17
2022-08-12T01:52:20.930Z,2.10
2022-08-12T01:54:19.262Z,2.63
2022-08-12T01:57:02.680Z,2.08
2022-08-12T02:00:00.688Z,2.30
2022-08-12T02:02:30.926Z,2.28
2022-08-12T02:05:34.976Z,2.50
2022-08-12T02:08:26.866Z,2.50
2022-08-12T02:11:18.830Z,2.30
2022-08-12T02:14:23.230Z,2.50
2022-08-12T02:17:09.726Z,2.72
2022-08-12T02:19:54.636Z,2.40
2022-08-12T02:22:39.862Z,2.42
2022-08-12T02:25:34.407Z,3.00
2022-08-12T02:28:05.956Z,2.67
2022-08-12T02:30:42.218Z,2.70
2022-08-12T02:33:10.849Z,2.42
2022-08-12T02:35:40.199Z,2.53
2022-08-12T02:38:10.644Z,2.58
2022-08-12T02:43:27.843Z,2.70
2022-08-12T02:46:07.303Z,2.47
2022-08-12T02:48:54.392Z,2.63
2022-08-12T02:51:32.253Z,3.00
2022-08-12T02:54:06.184Z,2.88
2022-08-12T02:56:40.900Z,2.70
2022-08-12T02:59:17.902Z,2.75
2022-08-12T03:01:53.709Z,2.85
2022-08-12T03:04:47.052Z,2.90
2022-08-12T03:07:54.346Z,2.72
2022-08-12T03:10:37.725Z,3.00
2022-08-12T03:13:07.473Z,2.80
2022-08-12T03:15:36.419Z,2.43
2022-08-12T03:18:28.571Z,2.88
2022-08-12T03:20:58.742Z,2.58
2022-08-12T03:23:29.694Z,2.60
2022-08-12T03:26:01.146Z,2.88
2022-08-12T03:28:50.885Z,3.28
2022-08-12T03:31:21.372Z,3.30
2022-08-12T03:34:02.165Z,2.80
2022-08-12T03:36:35.727Z,2.75
2022-08-12T03:39:19.554Z,3.10
2022-08-12T03:41:58.371Z,3.15
2022-08-12T03:44:57.066Z,2.83
2022-08-12T03:47:57.518Z,3.10
2022-08-12T03:50:46.112Z,2.75
2022-08-12T03:53:36.526Z,3.20
2022-08-12T03:56:25.876Z,3.42
2022-08-12T03:59:15.036Z,3.35
2022-08-12T04:01:42.897Z,3.00
2022-08-12T04:04:10.907Z,3.00
2022-08-12T04:06:46.571Z,2.70
2022-08-12T04:09:16.993Z,2.97
2022-08-12T04:14:32.641Z,2.85
2022-08-12T04:17:03.632Z,3.40
2022-08-12T04:19:31.927Z,3.58
2022-08-12T04:22:01.910Z,3.90
2022-08-12T04:24:40.764Z,3.33
2022-08-12T04:27:10.949Z,3.63
2022-08-12T04:30:32.969Z,3.90
2022-08-12T04:32:27.958Z,3.20
2022-08-12T04:34:55.860Z,3.67
2022-08-12T04:37:24.375Z,3.20
2022-08-12T04:39:54.312Z,3.15
2022-08-12T04:42:22.457Z,3.50
2022-08-12T04:44:49.848Z,3.22
2022-08-12T04:47:19.246Z,4.22
2022-08-12T04:49:49.161Z,3.22
2022-08-12T04:52:19.826Z,3.50
2022-08-12T04:54:48.677Z,3.50
2022-08-12T04:57:17.507Z,3.60
2022-08-12T04:59:47.713Z,3.47
2022-08-12T05:02:21.036Z,3.58
2022-08-12T05:04:52.918Z,3.58
2022-08-12T05:07:24.378Z,4.38
2022-08-12T05:09:58.804Z,4.22
2022-08-12T05:12:34.849Z,3.92
2022-08-12T05:15:02.796Z,3.70
2022-08-12T05:17:47.898Z,3.70
2022-08-12T05:20:20.954Z,4.00
2022-08-12T05:22:56.891Z,3.85
2022-08-12T05:25:26.701Z,3.92
2022-08-12T05:27:58.246Z,4.45
2022-08-12T05:30:34.562Z,4.13
2022-08-12T05:33:06.777Z,4.32
2022-08-12T05:35:42.201Z,4.20
2022-08-12T05:38:31.400Z,3.70
2022-08-12T05:40:59.883Z,3.83
2022-08-12T05:43:31.972Z,4.07
2022-08-12T05:46:00.232Z,3.47
2022-08-12T05:48:31.747Z,3.50
2022-08-12T05:50:59.552Z,4.00
2022-08-12T05:53:28.999Z,3.63
2022-08-12T05:55:56.645Z,4.60
2022-08-12T05:58:24.176Z,4.05
2022-08-12T06:00:53.694Z,3.80
2022-08-12T06:03:21.602Z,4.33
2022-08-12T06:05:54.953Z,4.32
2022-08-12T06:08:25.997Z,4.53
2022-08-12T06:10:54.086Z,4.25
2022-08-12T06:13:28.667Z,3.80
2022-08-12T06:16:10.677Z,4.00
2022-08-12T06:18:40.244Z,3.67
2022-08-12T06:21:13.065Z,4.25
2022-08-12T06:23:42.870Z,4.80
2022-08-12T06:26:13.211Z,4.75
2022-08-12T06:28:42.672Z,6.35
2022-08-12T06:31:26.116Z,4.53
2022-08-12T06:34:00.604Z,5.13
2022-08-12T06:36:46.306Z,5.47
2022-08-12T06:39:16.025Z,5.25
2022-08-12T06:42:31.723Z,4.75
2022-08-12T06:44:50.661Z,9.00
2022-08-12T06:47:19.789Z,7.13
2022-08-12T06:49:48.700Z,5.10
2022-08-12T06:52:17.479Z,3.85
2022-08-12T06:54:46.600Z,4.45
2022-08-12T06:58:06.221Z,4.40
2022-08-12T07:00:03.049Z,3.95
2022-08-12T07:02:34.984Z,4.13
2022-08-12T07:05:06.215Z,3.67
2022-08-12T07:07:33.991Z,3.50
2022-08-12T07:10:08.042Z,7.40
2022-08-12T07:12:37.018Z,6.20
2022-08-12T07:15:05.634Z,3.63
2022-08-12T07:17:37.729Z,3.65
2022-08-12T07:20:29.780Z,3.53
2022-08-12T07:22:58.806Z,3.75
2022-08-12T07:25:37.587Z,3.20
2022-08-12T07:28:18.337Z,3.53
2022-08-12T07:30:49.492Z,3.22
2022-08-12T07:33:20.323Z,3.20
2022-08-12T07:35:48.646Z,3.15
2022-08-12T07:38:29.436Z,3.05
2022-08-12T07:41:06.355Z,2.90
2022-08-12T07:43:38.882Z,3.10
2022-08-12T07:46:10.548Z,3.35
2022-08-12T07:48:49.158Z,3.00
2022-08-12T07:51:25.339Z,2.97
2022-08-12T07:54:00.748Z,2.90
2022-08-12T07:56:31.729Z,3.00
2022-08-12T07:58:59.549Z,2.97
2022-08-12T08:01:29.035Z,2.45
2022-08-12T08:04:19.072Z,3.30
2022-08-12T08:09:17.201Z,3.47
2022-08-12T08:12:03.492Z,2.95
2022-08-12T08:14:31.984Z,3.35
2022-08-12T08:17:03.677Z,3.67
2022-08-12T08:20:02.991Z,3.00
2022-08-12T08:22:33.397Z,3.63
2022-08-12T08:25:34.569Z,3.08
2022-08-12T08:28:04.199Z,2.90
2022-08-12T08:30:34.221Z,2.67
2022-08-12T08:33:01.674Z,2.92
2022-08-12T08:35:46.364Z,2.47
2022-08-12T08:38:33.284Z,3.75
2022-08-12T08:42:16.870Z,2.75
2022-08-12T08:44:12.625Z,2.60
2022-08-12T08:46:41.437Z,2.75
2022-08-12T08:49:08.782Z,2.65
2022-08-12T08:51:37.683Z,2.35
2022-08-12T08:54:10.631Z,2.10
2022-08-12T08:56:45.918Z,2.50
2022-08-12T08:59:15.089Z,2.22
2022-08-12T09:01:44.208Z,2.43
2022-08-12T09:05:07.788Z,2.15
2022-08-12T09:07:17.837Z,2.60
2022-08-12T09:10:02.033Z,1.90
2022-08-12T09:12:55.158Z,2.15
2022-08-12T09:15:35.082Z,2.22
2022-08-12T09:20:54.464Z,2.05
2022-08-12T09:26:10.156Z,2.22
2022-08-12T09:28:38.544Z,2.45
2022-08-12T09:32:06.780Z,2.30
2022-08-12T09:34:28.652Z,2.03
2022-08-12T09:36:58.214Z,2.05
2022-08-12T09:40:03.241Z,1.90
2022-08-12T09:42:48.236Z,1.90
2022-08-12T09:46:06.169Z,2.38
2022-08-12T09:48:20.072Z,2.05
2022-08-12T09:50:52.176Z,2.33
2022-08-12T09:53:29.251Z,2.63
2022-08-12T09:56:58.681Z,2.40
2022-08-12T09:58:59.635Z,2.08
2022-08-12T10:01:35.215Z,2.33
2022-08-12T10:06:55.355Z,1.98
2022-08-12T10:09:28.764Z,1.90
2022-08-12T10:12:33.440Z,2.10
2022-08-12T10:15:02.712Z,1.92
2022-08-12T10:17:32.046Z,2.20
2022-08-12T10:20:01.654Z,2.03
2022-08-12T10:26:34.179Z,2.10
2022-08-12T10:28:38.412Z,2.10
2022-08-12T10:31:16.531Z,2.10
2022-08-12T10:34:05.421Z,1.85
2022-08-12T10:36:40.088Z,1.60
2022-08-12T10:40:00.321Z,1.80
2022-08-12T10:42:29.392Z,1.85
2022-08-12T10:45:03.962Z,1.80
2022-08-12T10:48:15.939Z,1.85
2022-08-12T10:50:35.699Z,1.52
2022-08-12T10:53:19.472Z,2.10
2022-08-12T10:55:55.518Z,1.98
2022-08-12T10:58:30.964Z,1.73
2022-08-12T11:01:50.404Z,1.80
2022-08-12T11:04:20.316Z,1.88
2022-08-12T11:07:07.184Z,1.70
2022-08-12T11:09:51.377Z,1.70
2022-08-12T11:12:55.450Z,1.70
2022-08-12T11:15:00.808Z,1.80
2022-08-12T11:17:53.829Z,1.98
2022-08-12T11:20:24.169Z,1.58
2022-08-12T11:23:03.661Z,1.60
2022-08-12T11:25:56.336Z,2.08
2022-08-12T11:28:33.588Z,1.80
2022-08-12T11:31:04.694Z,1.85
2022-08-12T11:34:06.191Z,1.58
2022-08-12T11:36:22.072Z,1.75
2022-08-12T11:38:51.667Z,2.05
2022-08-12T11:41:30.861Z,2.00
2022-08-12T11:44:27.613Z,1.55
2022-08-12T11:46:51.165Z,1.83
2022-08-12T11:49:31.579Z,1.95
2022-08-12T11:52:03.948Z,2.20
2022-08-12T11:54:33.603Z,2.03
2022-08-12T11:57:09.757Z,2.00
2022-08-12T12:02:40.126Z,2.00
2022-08-12T12:05:08.451Z,2.40
2022-08-12T12:08:40.569Z,2.15
2022-08-12T12:10:31.329Z,1.90
2022-08-12T12:12:58.935Z,2.00
2022-08-12T12:15:40.980Z,2.50
2022-08-12T12:18:31.237Z,2.35
2022-08-12T12:21:02.280Z,1.95
2022-08-12T12:23:36.389Z,1.92
2022-08-12T12:26:08.210Z,1.90
2022-08-12T12:28:39.699Z,1.90
2022-08-12T12:31:14.884Z,1.90
2022-08-12T12:33:58.274Z,1.83
2022-08-12T12:36:30.296Z,2.50
2022-08-12T12:39:00.204Z,2.05
2022-08-12T12:44:25.806Z,1.85
2022-08-12T12:47:28.844Z,1.77
2022-08-12T12:49:54.374Z,1.73
2022-08-12T12:52:23.293Z,1.80
2022-08-12T12:54:57.992Z,1.70
2022-08-12T12:57:36.230Z,1.98
2022-08-12T13:00:16.184Z,1.67
2022-08-12T13:02:56.716Z,1.85
2022-08-12T13:05:42.045Z,1.90
2022-08-12T13:08:28.347Z,1.77
2022-08-12T13:11:06.423Z,1.75
2022-08-12T13:14:09.506Z,1.75
2022-08-12T13:16:30.065Z,1.50
2022-08-12T13:18:58.367Z,2.08
2022-08-12T13:21:33.390Z,1.85
2022-08-12T13:24:10.502Z,1.70
2022-08-12T13:26:41.489Z,1.83
2022-08-12T13:29:11.528Z,1.77
2022-08-12T13:31:46.352Z,1.65
2022-08-12T13:34:34.708Z,1.70
2022-08-12T13:37:09.910Z,1.80
2022-08-12T13:39:39.475Z,1.40
2022-08-12T13:42:14.609Z,1.70
2022-08-12T13:44:46.330Z,1.70
2022-08-12T13:47:19.836Z,1.48
2022-08-12T13:49:54.467Z,1.55
2022-08-12T13:52:23.849Z,1.50
2022-08-12T13:54:55.837Z,1.70
2022-08-12T13:57:26.738Z,1.50
2022-08-12T14:00:01.850Z,2.05
2022-08-12T14:02:41.760Z,1.63
2022-08-12T14:05:37.950Z,1.50
2022-08-12T14:08:01.658Z,1.48
2022-08-12T14:10:50.616Z,1.77
2022-08-12T14:14:03.375Z,1.40
2022-08-12T14:16:37.465Z,1.73
2022-08-12T14:19:18.349Z,1.50
2022-08-12T14:21:59.191Z,1.27
2022-08-12T14:24:40.772Z,1.55
2022-08-12T14:27:12.858Z,1.50
2022-08-12T14:30:04.272Z,1.60
2022-08-12T14:32:35.999Z,1.55
2022-08-12T14:35:09.502Z,1.58
2022-08-12T14:37:56.106Z,1.40
2022-08-12T14:40:30.429Z,1.55
2022-08-12T14:42:59.149Z,1.30
2022-08-12T14:45:45.149Z,1.70
2022-08-12T14:48:23.987Z,1.50
2022-08-12T14:52:10.475Z,1.63
2022-08-12T14:54:55.931Z,1.50
2022-08-12T14:59:57.777Z,1.67
2022-08-12T15:02:26.652Z,1.60
2022-08-12T15:04:59.850Z,1.63
2022-08-12T15:07:33.449Z,1.50
2022-08-12T15:10:31.585Z,1.73
2022-08-12T15:13:05.369Z,1.60
2022-08-12T15:15:43.846Z,1.73
2022-08-12T15:20:55.750Z,1.63
2022-08-12T15:23:33.088Z,1.65
2022-08-12T15:26:21.169Z,1.50
2022-08-12T15:28:55.238Z,1.83
2022-08-12T15:31:28.405Z,1.38
2022-08-12T15:34:13.156Z,1.40
2022-08-12T15:36:55.110Z,1.70
2022-08-12T15:39:23.333Z,1.50
2022-08-12T15:41:55.582Z,2.03
2022-08-12T15:44:42.155Z,2.55
2022-08-12T15:47:10.401Z,1.40
2022-08-12T15:49:54.141Z,1.63
2022-08-12T15:52:29.822Z,1.87
2022-08-12T15:55:06.047Z,1.80
2022-08-12T15:57:41.744Z,1.38
2022-08-12T16:00:31.734Z,1.30
2022-08-12T16:02:58.974Z,1.50
2022-08-12T16:06:15.476Z,1.50
2022-08-12T16:08:24.091Z,1.40
2022-08-12T16:10:56.714Z,1.70
2022-08-12T16:13:34.805Z,1.37
2022-08-12T16:16:12.204Z,1.50
2022-08-12T16:18:51.631Z,1.67
2022-08-12T16:21:51.932Z,1.40
2022-08-12T16:24:08.518Z,1.40
2022-08-12T16:26:41.205Z,1.60
2022-08-12T16:31:46.615Z,1.50
2022-08-12T16:34:25.934Z,1.50
2022-08-12T16:37:08.923Z,1.70
2022-08-12T16:40:01.041Z,1.60
2022-08-12T16:42:28.416Z,1.70
2022-08-12T16:45:03.582Z,1.85
2022-08-12T16:47:57.292Z,1.55
2022-08-12T16:50:38.319Z,1.60
2022-08-12T16:53:44.589Z,1.70
2022-08-12T16:59:59.442Z,1.40
2022-08-12T17:02:31.651Z,1.85
2022-08-12T17:05:04.936Z,1.50
2022-08-12T17:07:43.755Z,1.42
2022-08-12T17:10:18.306Z,1.80
2022-08-12T17:15:51.057Z,1.52
2022-08-12T17:18:42.718Z,1.40
2022-08-12T17:21:19.636Z,1.70
2022-08-12T17:23:54.282Z,1.63
2022-08-12T17:26:28.352Z,1.50
2022-08-12T17:29:03.051Z,1.80
2022-08-12T17:32:00.457Z,1.60
2022-08-12T17:34:39.348Z,1.92
2022-08-12T17:37:09.851Z,1.20
2022-08-12T17:40:12.800Z,1.42
2022-08-12T17:42:34.841Z,1.58
2022-08-12T17:45:15.600Z,1.55
2022-08-12T17:48:01.521Z,1.40
2022-08-12T17:50:38.271Z,1.67
2022-08-12T17:53:10.948Z,1.50
2022-08-12T17:55:47.329Z,1.20
2022-08-12T17:58:37.904Z,1.60
2022-08-12T18:01:12.251Z,1.70
2022-08-12T18:04:05.390Z,1.85
2022-08-12T18:06:31.013Z,1.23
2022-08-12T18:09:08.742Z,1.42
2022-08-12T18:12:06.323Z,1.55
2022-08-12T18:14:40.979Z,1.90
2022-08-12T18:17:10.126Z,1.33
2022-08-12T18:20:06.589Z,1.48
2022-08-12T18:22:30.483Z,1.50
2022-08-12T18:25:18.653Z,1.30
2022-08-12T18:28:16.251Z,1.70
2022-08-12T18:30:53.412Z,1.48
2022-08-12T18:33:26.764Z,1.40
2022-08-12T18:35:56.920Z,1.80
2022-08-12T18:41:21.452Z,1.60
2022-08-12T18:44:02.739Z,1.38
2022-08-12T18:46:55.643Z,1.50
2022-08-12T18:49:38.639Z,1.58
2022-08-12T18:52:12.204Z,1.40
2022-08-12T18:54:55.690Z,1.20
2022-08-12T18:58:07.399Z,1.30
2022-08-12T19:00:22.203Z,1.42
2022-08-12T19:02:57.430Z,1.30
2022-08-12T19:05:53.113Z,1.50
2022-08-12T19:08:18.505Z,1.40
2022-08-12T19:10:50.358Z,1.38
2022-08-12T19:13:39.127Z,1.38
2022-08-12T19:16:11.486Z,1.60
2022-08-12T19:18:44.545Z,1.67
2022-08-12T19:21:16.043Z,1.50
2022-08-12T19:24:05.174Z,1.58
2022-08-12T19:26:34.979Z,1.45
2022-08-12T19:29:05.208Z,1.42
2022-08-12T19:31:57.406Z,1.58
2022-08-12T19:37:27.565Z,1.35
2022-08-12T19:40:31.233Z,1.58
2022-08-12T19:43:00.884Z,1.63
2022-08-12T19:45:41.785Z,1.48
2022-08-12T19:48:17.498Z,1.90
2022-08-12T19:50:50.228Z,1.35
2022-08-12T19:53:23.613Z,1.48
2022-08-12T19:55:57.105Z,1.67
2022-08-12T19:58:25.447Z,1.65
2022-08-12T20:00:55.660Z,1.80
2022-08-12T20:03:38.196Z,1.60
2022-08-12T20:06:15.653Z,1.60
2022-08-12T20:08:48.652Z,1.58
2022-08-12T20:12:15.109Z,1.55
2022-08-12T20:14:09.412Z,1.40
2022-08-12T20:20:01.672Z,2.10
2022-08-12T20:22:24.603Z,1.70
2022-08-12T20:25:02.164Z,1.80
2022-08-12T20:28:02.840Z,1.73
2022-08-12T20:30:52.683Z,1.75
2022-08-12T20:33:18.329Z,1.67
2022-08-12T20:36:14.072Z,1.70
2022-08-12T20:38:39.919Z,1.63
2022-08-12T20:41:16.505Z,1.75
2022-08-12T20:43:53.189Z,1.52
2022-08-12T20:46:31.701Z,1.75
2022-08-12T20:49:17.671Z,2.60
2022-08-12T20:51:55.061Z,2.42
2022-08-12T20:54:32.823Z,1.85
2022-08-12T20:57:02.182Z,2.22
2022-08-12T20:59:47.738Z,2.42
2022-08-12T21:02:24.349Z,2.15
2022-08-12T21:05:19.758Z,1.90
2022-08-12T21:07:51.649Z,1.85
2022-08-12T21:10:21.600Z,2.00
2022-08-12T21:12:56.325Z,1.77
2022-08-12T21:15:30.586Z,2.40
2022-08-12T21:18:28.305Z,2.45
2022-08-12T21:20:57.566Z,2.00
2022-08-12T21:23:30.612Z,1.95
2022-08-12T21:26:11.336Z,2.20
2022-08-12T21:28:56.707Z,2.22
2022-08-12T21:32:37.136Z,2.00
2022-08-12T21:34:18.043Z,1.80
2022-08-12T21:36:53.852Z,1.95
2022-08-12T21:39:35.817Z,1.65
2022-08-12T21:42:08.626Z,1.90
2022-08-12T21:45:43.806Z,1.90
2022-08-12T21:47:26.180Z,1.63
2022-08-12T21:52:49.060Z,1.80
2022-08-12T21:55:19.592Z,1.60
2022-08-12T21:57:54.301Z,1.67
2022-08-12T22:00:33.328Z,1.77
2022-08-12T22:04:03.946Z,1.63
2022-08-12T22:06:30.519Z,1.73
2022-08-12T22:09:15.399Z,1.63
2022-08-12T22:11:58.546Z,1.67
2022-08-12T22:14:30.693Z,1.63
2022-08-12T22:17:00.798Z,1.80
2022-08-12T22:19:28.444Z,2.25
2022-08-12T22:21:58.627Z,1.40
2022-08-12T22:24:29.880Z,1.85
2022-08-12T22:27:18.277Z,1.80
2022-08-12T22:30:16.940Z,1.80
2022-08-12T22:32:55.360Z,1.75
2022-08-12T22:35:56.239Z,1.60
2022-08-12T22:38:25.138Z,1.92
2022-08-12T22:41:01.069Z,1.90
2022-08-12T22:44:00.522Z,1.60
2022-08-12T22:46:33.007Z,1.67
2022-08-12T22:49:01.150Z,1.65
2022-08-12T22:51:59.777Z,1.70
2022-08-12T22:54:20.819Z,1.85
2022-08-12T22:57:12.150Z,1.55
2022-08-12T22:59:51.085Z,1.70
2022-08-12T23:02:30.889Z,1.63
2022-08-12T23:05:02.181Z,1.45
2022-08-12T23:07:36.456Z,1.73
2022-08-12T23:10:17.818Z,2.03
2022-08-12T23:13:06.180Z,1.50
2022-08-12T23:15:37.707Z,1.75
2022-08-12T23:18:16.848Z,1.50
2022-08-12T23:20:45.241Z,1.70
2022-08-12T23:23:17.862Z,1.60
2022-08-12T23:25:54.649Z,1.52
2022-08-12T23:28:42.562Z,1.80
2022-08-12T23:31:12.922Z,1.80
2022-08-12T23:34:01.494Z,1.90
2022-08-12T23:36:31.731Z,1.80
2022-08-12T23:40:13.345Z,1.80
2022-08-12T23:42:16.692Z,1.50
2022-08-12T23:44:48.560Z,2.03
2022-08-12T23:47:21.481Z,2.10
2022-08-12T23:52:34.022Z,1.60
2022-08-12T23:55:23.129Z,1.80
2022-08-12T23:58:20.725Z,1.38
